sensor_id;sensor_type;location;lat;lon;timestamp;P1;durP1;ratioP1;P2;durP2;ratioP2
47960;SDS011;33721;48.852;9.936;2023-06-26T00:00:39;16.08;;;9.45;;
47960;SDS011;33721;48.852;9.936;2023-06-26T00:03:05;15.55;;;8.82;;
47960;SDS011;33721;48.852;9.936;2023-06-26T00:05:30;18.27;;;9.32;;
47960;SDS011;33721;48.852;9.936;2023-06-26T00:07:56;16.55;;;8.93;;
47960;SDS011;33721;48.852;9.936;2023-06-26T00:10:25;14.52;;;8.75;;
47960;SDS011;33721;48.852;9.936;2023-06-26T00:12:54;15.60;;;8.85;;
47960;SDS011;33721;48.852;9.936;2023-06-26T00:15:19;15.90;;;9.00;;
47960;SDS011;33721;48.852;9.936;2023-06-26T00:17:45;15.00;;;8.60;;
47960;SDS011;33721;48.852;9.936;2023-06-26T00:20:11;17.77;;;9.98;;
47960;SDS011;33721;48.852;9.936;2023-06-26T00:22:36;16.95;;;9.43;;
47960;SDS011;33721;48.852;9.936;2023-06-26T00:25:06;14.88;;;8.75;;
47960;SDS011;33721;48.852;9.936;2023-06-26T00:27:31;16.92;;;8.90;;
47960;SDS011;33721;48.852;9.936;2023-06-26T00:29:57;16.85;;;9.18;;
47960;SDS011;33721;48.852;9.936;2023-06-26T00:32:23;16.55;;;9.23;;
47960;SDS011;33721;48.852;9.936;2023-06-26T00:34:48;19.48;;;10.15;;
47960;SDS011;33721;48.852;9.936;2023-06-26T00:37:14;15.20;;;8.82;;
47960;SDS011;33721;48.852;9.936;2023-06-26T00:39:40;15.60;;;8.77;;
47960;SDS011;33721;48.852;9.936;2023-06-26T00:42:05;15.98;;;8.88;;
47960;SDS011;33721;48.852;9.936;2023-06-26T00:44:31;15.75;;;9.00;;
47960;SDS011;33721;48.852;9.936;2023-06-26T00:46:57;17.48;;;9.00;;
47960;SDS011;33721;48.852;9.936;2023-06-26T00:49:23;18.80;;;9.35;;
47960;SDS011;33721;48.852;9.936;2023-06-26T00:51:49;15.93;;;8.65;;
47960;SDS011;33721;48.852;9.936;2023-06-26T00:54:15;18.80;;;9.20;;
47960;SDS011;33721;48.852;9.936;2023-06-26T00:56:45;16.30;;;9.15;;
47960;SDS011;33721;48.852;9.936;2023-06-26T00:59:12;15.00;;;9.23;;
47960;SDS011;33721;48.852;9.936;2023-06-26T01:01:38;17.75;;;9.52;;
47960;SDS011;33721;48.852;9.936;2023-06-26T01:04:03;19.63;;;9.15;;
47960;SDS011;33721;48.852;9.936;2023-06-26T01:06:30;19.40;;;9.27;;
47960;SDS011;33721;48.852;9.936;2023-06-26T01:09:00;16.35;;;9.10;;
47960;SDS011;33721;48.852;9.936;2023-06-26T01:11:27;16.85;;;9.02;;
47960;SDS011;33721;48.852;9.936;2023-06-26T01:13:53;15.32;;;8.90;;
47960;SDS011;33721;48.852;9.936;2023-06-26T01:16:21;16.48;;;9.10;;
47960;SDS011;33721;48.852;9.936;2023-06-26T01:18:49;17.42;;;9.52;;
47960;SDS011;33721;48.852;9.936;2023-06-26T01:21:15;17.25;;;9.68;;
47960;SDS011;33721;48.852;9.936;2023-06-26T01:23:47;15.57;;;9.13;;
47960;SDS011;33721;48.852;9.936;2023-06-26T01:28:51;16.48;;;8.75;;
47960;SDS011;33721;48.852;9.936;2023-06-26T01:31:18;19.50;;;9.82;;
47960;SDS011;33721;48.852;9.936;2023-06-26T01:33:44;20.98;;;9.82;;
47960;SDS011;33721;48.852;9.936;2023-06-26T01:36:11;16.60;;;8.77;;
47960;SDS011;33721;48.852;9.936;2023-06-26T01:38:37;16.98;;;9.48;;
47960;SDS011;33721;48.852;9.936;2023-06-26T01:41:03;15.82;;;8.60;;
47960;SDS011;33721;48.852;9.936;2023-06-26T01:46:23;18.52;;;9.80;;
47960;SDS011;33721;48.852;9.936;2023-06-26T01:48:59;17.48;;;9.35;;
47960;SDS011;33721;48.852;9.936;2023-06-26T01:51:41;17.05;;;9.55;;
47960;SDS011;33721;48.852;9.936;2023-06-26T01:54:13;16.77;;;9.20;;
47960;SDS011;33721;48.852;9.936;2023-06-26T01:56:41;16.38;;;9.32;;
47960;SDS011;33721;48.852;9.936;2023-06-26T01:59:09;16.60;;;9.48;;
47960;SDS011;33721;48.852;9.936;2023-06-26T02:01:39;16.85;;;9.20;;
47960;SDS011;33721;48.852;9.936;2023-06-26T02:04:04;19.05;;;10.23;;
47960;SDS011;33721;48.852;9.936;2023-06-26T02:06:30;19.55;;;10.00;;
47960;SDS011;33721;48.852;9.936;2023-06-26T02:08:56;17.45;;;9.15;;
47960;SDS011;33721;48.852;9.936;2023-06-26T02:11:21;16.73;;;9.13;;
47960;SDS011;33721;48.852;9.936;2023-06-26T02:13:47;17.10;;;9.45;;
47960;SDS011;33721;48.852;9.936;2023-06-26T02:16:13;18.70;;;10.15;;
47960;SDS011;33721;48.852;9.936;2023-06-26T02:18:39;17.90;;;9.88;;
47960;SDS011;33721;48.852;9.936;2023-06-26T02:21:05;16.75;;;9.32;;
47960;SDS011;33721;48.852;9.936;2023-06-26T02:23:31;16.80;;;9.50;;
47960;SDS011;33721;48.852;9.936;2023-06-26T02:25:57;18.52;;;9.07;;
47960;SDS011;33721;48.852;9.936;2023-06-26T02:28:23;17.45;;;9.60;;
47960;SDS011;33721;48.852;9.936;2023-06-26T02:30:48;18.60;;;9.90;;
47960;SDS011;33721;48.852;9.936;2023-06-26T02:33:14;15.48;;;9.18;;
47960;SDS011;33721;48.852;9.936;2023-06-26T02:35:39;17.38;;;9.73;;
47960;SDS011;33721;48.852;9.936;2023-06-26T02:38:05;14.82;;;8.80;;
47960;SDS011;33721;48.852;9.936;2023-06-26T02:40:31;17.63;;;9.75;;
47960;SDS011;33721;48.852;9.936;2023-06-26T02:42:57;18.17;;;9.70;;
47960;SDS011;33721;48.852;9.936;2023-06-26T02:45:23;18.85;;;10.15;;
47960;SDS011;33721;48.852;9.936;2023-06-26T02:47:48;17.35;;;9.52;;
47960;SDS011;33721;48.852;9.936;2023-06-26T02:50:14;17.58;;;9.38;;
47960;SDS011;33721;48.852;9.936;2023-06-26T02:52:40;15.85;;;9.43;;
47960;SDS011;33721;48.852;9.936;2023-06-26T02:55:05;19.40;;;9.70;;
47960;SDS011;33721;48.852;9.936;2023-06-26T02:57:31;17.58;;;9.32;;
47960;SDS011;33721;48.852;9.936;2023-06-26T02:59:57;16.00;;;9.38;;
47960;SDS011;33721;48.852;9.936;2023-06-26T03:02:22;17.23;;;9.32;;
47960;SDS011;33721;48.852;9.936;2023-06-26T03:04:48;20.13;;;9.52;;
47960;SDS011;33721;48.852;9.936;2023-06-26T03:07:15;19.00;;;9.93;;
47960;SDS011;33721;48.852;9.936;2023-06-26T03:09:41;20.00;;;9.40;;
47960;SDS011;33721;48.852;9.936;2023-06-26T03:12:07;17.38;;;10.07;;
47960;SDS011;33721;48.852;9.936;2023-06-26T03:14:33;16.65;;;9.20;;
47960;SDS011;33721;48.852;9.936;2023-06-26T03:16:58;17.30;;;9.52;;
47960;SDS011;33721;48.852;9.936;2023-06-26T03:19:28;17.27;;;9.52;;
47960;SDS011;33721;48.852;9.936;2023-06-26T03:21:53;17.30;;;9.85;;
47960;SDS011;33721;48.852;9.936;2023-06-26T03:24:20;17.27;;;9.50;;
47960;SDS011;33721;48.852;9.936;2023-06-26T03:26:45;17.60;;;9.43;;
47960;SDS011;33721;48.852;9.936;2023-06-26T03:29:11;18.27;;;9.68;;
47960;SDS011;33721;48.852;9.936;2023-06-26T03:31:39;21.00;;;9.73;;
47960;SDS011;33721;48.852;9.936;2023-06-26T03:34:05;17.95;;;9.60;;
47960;SDS011;33721;48.852;9.936;2023-06-26T03:36:30;16.40;;;9.27;;
47960;SDS011;33721;48.852;9.936;2023-06-26T03:38:56;17.67;;;9.63;;
47960;SDS011;33721;48.852;9.936;2023-06-26T03:41:22;16.65;;;8.70;;
47960;SDS011;33721;48.852;9.936;2023-06-26T03:43:48;16.38;;;8.85;;
47960;SDS011;33721;48.852;9.936;2023-06-26T03:46:14;18.60;;;9.15;;
47960;SDS011;33721;48.852;9.936;2023-06-26T03:48:39;17.80;;;9.25;;
47960;SDS011;33721;48.852;9.936;2023-06-26T03:51:05;15.93;;;9.63;;
47960;SDS011;33721;48.852;9.936;2023-06-26T03:53:32;18.75;;;9.90;;
47960;SDS011;33721;48.852;9.936;2023-06-26T03:55:58;17.90;;;9.68;;
47960;SDS011;33721;48.852;9.936;2023-06-26T03:58:23;17.63;;;10.18;;
47960;SDS011;33721;48.852;9.936;2023-06-26T04:00:50;16.50;;;9.35;;
47960;SDS011;33721;48.852;9.936;2023-06-26T04:03:15;18.60;;;9.77;;
47960;SDS011;33721;48.852;9.936;2023-06-26T04:05:41;24.40;;;9.35;;
47960;SDS011;33721;48.852;9.936;2023-06-26T04:08:07;19.55;;;9.80;;
47960;SDS011;33721;48.852;9.936;2023-06-26T04:10:33;20.55;;;10.57;;
47960;SDS011;33721;48.852;9.936;2023-06-26T04:12:59;23.98;;;9.95;;
47960;SDS011;33721;48.852;9.936;2023-06-26T04:15:24;19.10;;;10.40;;
47960;SDS011;33721;48.852;9.936;2023-06-26T04:17:50;17.70;;;9.48;;
47960;SDS011;33721;48.852;9.936;2023-06-26T04:20:15;16.45;;;9.38;;
47960;SDS011;33721;48.852;9.936;2023-06-26T04:22:41;16.50;;;9.93;;
47960;SDS011;33721;48.852;9.936;2023-06-26T04:25:07;18.67;;;9.75;;
47960;SDS011;33721;48.852;9.936;2023-06-26T04:27:33;16.58;;;9.40;;
47960;SDS011;33721;48.852;9.936;2023-06-26T04:29:58;18.85;;;10.63;;
47960;SDS011;33721;48.852;9.936;2023-06-26T04:32:24;18.70;;;9.95;;
47960;SDS011;33721;48.852;9.936;2023-06-26T04:34:50;19.50;;;10.07;;
47960;SDS011;33721;48.852;9.936;2023-06-26T04:37:15;18.88;;;10.48;;
47960;SDS011;33721;48.852;9.936;2023-06-26T04:39:44;18.45;;;10.00;;
47960;SDS011;33721;48.852;9.936;2023-06-26T04:42:10;17.65;;;10.05;;
47960;SDS011;33721;48.852;9.936;2023-06-26T04:44:38;20.65;;;9.40;;
47960;SDS011;33721;48.852;9.936;2023-06-26T04:47:06;21.05;;;9.98;;
47960;SDS011;33721;48.852;9.936;2023-06-26T04:49:32;16.98;;;9.55;;
47960;SDS011;33721;48.852;9.936;2023-06-26T04:51:58;20.45;;;9.95;;
47960;SDS011;33721;48.852;9.936;2023-06-26T04:54:25;17.20;;;9.63;;
47960;SDS011;33721;48.852;9.936;2023-06-26T04:56:51;19.23;;;10.48;;
47960;SDS011;33721;48.852;9.936;2023-06-26T04:59:16;26.20;;;11.07;;
47960;SDS011;33721;48.852;9.936;2023-06-26T05:01:42;19.90;;;10.65;;
47960;SDS011;33721;48.852;9.936;2023-06-26T05:04:12;20.13;;;10.75;;
47960;SDS011;33721;48.852;9.936;2023-06-26T05:06:38;19.33;;;10.18;;
47960;SDS011;33721;48.852;9.936;2023-06-26T05:09:04;16.23;;;9.73;;
47960;SDS011;33721;48.852;9.936;2023-06-26T05:11:29;17.02;;;9.98;;
47960;SDS011;33721;48.852;9.936;2023-06-26T05:13:55;16.15;;;9.70;;
47960;SDS011;33721;48.852;9.936;2023-06-26T05:16:21;17.90;;;10.15;;
47960;SDS011;33721;48.852;9.936;2023-06-26T05:18:46;16.58;;;9.68;;
47960;SDS011;33721;48.852;9.936;2023-06-26T05:21:12;19.60;;;9.93;;
47960;SDS011;33721;48.852;9.936;2023-06-26T05:23:38;20.25;;;10.90;;
47960;SDS011;33721;48.852;9.936;2023-06-26T05:26:04;17.27;;;9.77;;
47960;SDS011;33721;48.852;9.936;2023-06-26T05:28:30;19.13;;;10.63;;
47960;SDS011;33721;48.852;9.936;2023-06-26T05:30:56;16.15;;;10.10;;
47960;SDS011;33721;48.852;9.936;2023-06-26T05:33:23;19.05;;;10.15;;
47960;SDS011;33721;48.852;9.936;2023-06-26T05:35:51;18.90;;;10.02;;
47960;SDS011;33721;48.852;9.936;2023-06-26T05:38:18;19.17;;;11.07;;
47960;SDS011;33721;48.852;9.936;2023-06-26T05:40:44;20.17;;;10.98;;
47960;SDS011;33721;48.852;9.936;2023-06-26T05:43:10;17.65;;;9.73;;
47960;SDS011;33721;48.852;9.936;2023-06-26T05:45:36;20.92;;;10.63;;
47960;SDS011;33721;48.852;9.936;2023-06-26T05:48:02;18.10;;;10.45;;
47960;SDS011;33721;48.852;9.936;2023-06-26T05:50:28;18.52;;;9.73;;
47960;SDS011;33721;48.852;9.936;2023-06-26T05:52:54;18.55;;;10.57;;
47960;SDS011;33721;48.852;9.936;2023-06-26T05:55:20;19.45;;;10.68;;
47960;SDS011;33721;48.852;9.936;2023-06-26T05:57:46;19.88;;;11.13;;
47960;SDS011;33721;48.852;9.936;2023-06-26T06:00:13;18.20;;;11.07;;
47960;SDS011;33721;48.852;9.936;2023-06-26T06:02:40;17.30;;;10.55;;
47960;SDS011;33721;48.852;9.936;2023-06-26T06:05:06;18.75;;;10.43;;
47960;SDS011;33721;48.852;9.936;2023-06-26T06:07:32;17.58;;;10.45;;
47960;SDS011;33721;48.852;9.936;2023-06-26T06:09:59;18.95;;;10.77;;
47960;SDS011;33721;48.852;9.936;2023-06-26T06:12:25;18.67;;;11.00;;
47960;SDS011;33721;48.852;9.936;2023-06-26T06:14:51;19.02;;;10.77;;
47960;SDS011;33721;48.852;9.936;2023-06-26T06:17:17;16.77;;;10.35;;
47960;SDS011;33721;48.852;9.936;2023-06-26T06:19:44;22.60;;;11.18;;
47960;SDS011;33721;48.852;9.936;2023-06-26T06:22:10;16.52;;;10.60;;
47960;SDS011;33721;48.852;9.936;2023-06-26T06:24:35;21.63;;;10.52;;
47960;SDS011;33721;48.852;9.936;2023-06-26T06:27:01;16.25;;;10.40;;
47960;SDS011;33721;48.852;9.936;2023-06-26T06:29:27;18.50;;;10.05;;
47960;SDS011;33721;48.852;9.936;2023-06-26T06:31:53;16.98;;;9.75;;
47960;SDS011;33721;48.852;9.936;2023-06-26T06:34:18;16.30;;;9.65;;
47960;SDS011;33721;48.852;9.936;2023-06-26T06:36:44;16.90;;;10.73;;
47960;SDS011;33721;48.852;9.936;2023-06-26T06:39:10;17.55;;;8.65;;
47960;SDS011;33721;48.852;9.936;2023-06-26T06:41:35;16.25;;;9.48;;
47960;SDS011;33721;48.852;9.936;2023-06-26T06:44:01;15.02;;;8.95;;
47960;SDS011;33721;48.852;9.936;2023-06-26T06:46:26;14.95;;;9.25;;
47960;SDS011;33721;48.852;9.936;2023-06-26T06:48:52;17.40;;;9.02;;
47960;SDS011;33721;48.852;9.936;2023-06-26T06:51:18;16.02;;;9.13;;
47960;SDS011;33721;48.852;9.936;2023-06-26T06:53:44;13.98;;;8.32;;
47960;SDS011;33721;48.852;9.936;2023-06-26T06:56:09;16.05;;;9.07;;
47960;SDS011;33721;48.852;9.936;2023-06-26T06:58:35;14.35;;;9.15;;
47960;SDS011;33721;48.852;9.936;2023-06-26T07:01:01;15.98;;;8.55;;
47960;SDS011;33721;48.852;9.936;2023-06-26T07:03:30;15.18;;;9.15;;
47960;SDS011;33721;48.852;9.936;2023-06-26T07:05:55;18.52;;;9.57;;
47960;SDS011;33721;48.852;9.936;2023-06-26T07:08:21;12.80;;;8.65;;
47960;SDS011;33721;48.852;9.936;2023-06-26T07:10:47;16.00;;;9.43;;
47960;SDS011;33721;48.852;9.936;2023-06-26T07:13:12;13.77;;;8.55;;
47960;SDS011;33721;48.852;9.936;2023-06-26T07:15:38;13.95;;;9.02;;
47960;SDS011;33721;48.852;9.936;2023-06-26T07:18:04;15.13;;;9.23;;
47960;SDS011;33721;48.852;9.936;2023-06-26T07:20:29;14.30;;;9.35;;
47960;SDS011;33721;48.852;9.936;2023-06-26T07:22:55;18.45;;;8.88;;
47960;SDS011;33721;48.852;9.936;2023-06-26T07:25:21;15.82;;;9.88;;
47960;SDS011;33721;48.852;9.936;2023-06-26T07:27:47;21.58;;;9.40;;
47960;SDS011;33721;48.852;9.936;2023-06-26T07:30:12;15.57;;;9.02;;
47960;SDS011;33721;48.852;9.936;2023-06-26T07:32:38;15.30;;;9.18;;
47960;SDS011;33721;48.852;9.936;2023-06-26T07:35:05;12.88;;;8.63;;
47960;SDS011;33721;48.852;9.936;2023-06-26T07:37:31;14.88;;;9.25;;
47960;SDS011;33721;48.852;9.936;2023-06-26T07:39:57;14.95;;;9.23;;
47960;SDS011;33721;48.852;9.936;2023-06-26T07:42:22;16.15;;;8.55;;
47960;SDS011;33721;48.852;9.936;2023-06-26T07:44:48;13.65;;;9.40;;
47960;SDS011;33721;48.852;9.936;2023-06-26T07:47:14;14.20;;;9.10;;
47960;SDS011;33721;48.852;9.936;2023-06-26T07:49:40;15.82;;;9.13;;
47960;SDS011;33721;48.852;9.936;2023-06-26T07:52:06;14.90;;;9.25;;
47960;SDS011;33721;48.852;9.936;2023-06-26T07:54:32;14.38;;;9.20;;
47960;SDS011;33721;48.852;9.936;2023-06-26T07:59:27;14.15;;;8.70;;
47960;SDS011;33721;48.852;9.936;2023-06-26T08:01:54;12.50;;;9.02;;
47960;SDS011;33721;48.852;9.936;2023-06-26T08:04:22;14.43;;;9.63;;
47960;SDS011;33721;48.852;9.936;2023-06-26T08:06:49;14.82;;;8.95;;
47960;SDS011;33721;48.852;9.936;2023-06-26T08:09:16;14.85;;;9.07;;
47960;SDS011;33721;48.852;9.936;2023-06-26T08:11:43;13.15;;;8.43;;
47960;SDS011;33721;48.852;9.936;2023-06-26T08:14:09;13.43;;;8.65;;
47960;SDS011;33721;48.852;9.936;2023-06-26T08:16:36;13.80;;;9.02;;
47960;SDS011;33721;48.852;9.936;2023-06-26T08:19:03;16.42;;;8.55;;
47960;SDS011;33721;48.852;9.936;2023-06-26T08:21:28;12.75;;;8.45;;
47960;SDS011;33721;48.852;9.936;2023-06-26T08:23:54;13.63;;;8.15;;
47960;SDS011;33721;48.852;9.936;2023-06-26T08:26:20;13.52;;;8.40;;
47960;SDS011;33721;48.852;9.936;2023-06-26T08:28:45;12.93;;;8.43;;
47960;SDS011;33721;48.852;9.936;2023-06-26T08:31:11;12.60;;;8.15;;
47960;SDS011;33721;48.852;9.936;2023-06-26T08:33:37;14.55;;;7.82;;
47960;SDS011;33721;48.852;9.936;2023-06-26T08:36:02;12.40;;;7.63;;
47960;SDS011;33721;48.852;9.936;2023-06-26T08:38:28;13.10;;;8.98;;
47960;SDS011;33721;48.852;9.936;2023-06-26T08:40:54;12.70;;;8.32;;
47960;SDS011;33721;48.852;9.936;2023-06-26T08:43:19;16.10;;;9.18;;
47960;SDS011;33721;48.852;9.936;2023-06-26T08:45:46;13.02;;;8.60;;
47960;SDS011;33721;48.852;9.936;2023-06-26T08:48:16;14.13;;;8.13;;
47960;SDS011;33721;48.852;9.936;2023-06-26T08:50:42;19.10;;;8.68;;
47960;SDS011;33721;48.852;9.936;2023-06-26T08:56:06;13.70;;;8.00;;
47960;SDS011;33721;48.852;9.936;2023-06-26T08:58:33;14.70;;;8.25;;
47960;SDS011;33721;48.852;9.936;2023-06-26T09:01:01;10.80;;;8.05;;
47960;SDS011;33721;48.852;9.936;2023-06-26T09:03:29;14.00;;;8.55;;
47960;SDS011;33721;48.852;9.936;2023-06-26T09:05:55;13.25;;;8.45;;
47960;SDS011;33721;48.852;9.936;2023-06-26T09:08:21;12.65;;;8.07;;
47960;SDS011;33721;48.852;9.936;2023-06-26T09:10:46;16.10;;;8.43;;
47960;SDS011;33721;48.852;9.936;2023-06-26T09:13:12;11.60;;;8.15;;
47960;SDS011;33721;48.852;9.936;2023-06-26T09:15:38;12.93;;;8.07;;
47960;SDS011;33721;48.852;9.936;2023-06-26T09:18:08;14.27;;;7.95;;
47960;SDS011;33721;48.852;9.936;2023-06-26T09:20:33;12.18;;;8.30;;
47960;SDS011;33721;48.852;9.936;2023-06-26T09:23:00;11.55;;;8.13;;
47960;SDS011;33721;48.852;9.936;2023-06-26T09:25:27;18.25;;;8.15;;
47960;SDS011;33721;48.852;9.936;2023-06-26T09:27:53;10.50;;;7.53;;
47960;SDS011;33721;48.852;9.936;2023-06-26T09:30:20;19.02;;;8.05;;
47960;SDS011;33721;48.852;9.936;2023-06-26T09:32:46;11.70;;;7.20;;
47960;SDS011;33721;48.852;9.936;2023-06-26T09:35:12;10.73;;;7.85;;
47960;SDS011;33721;48.852;9.936;2023-06-26T09:37:38;13.25;;;7.65;;
47960;SDS011;33721;48.852;9.936;2023-06-26T09:40:04;14.13;;;8.07;;
47960;SDS011;33721;48.852;9.936;2023-06-26T09:42:31;12.05;;;7.65;;
47960;SDS011;33721;48.852;9.936;2023-06-26T09:44:57;13.90;;;6.70;;
47960;SDS011;33721;48.852;9.936;2023-06-26T09:47:23;9.60;;;7.00;;
47960;SDS011;33721;48.852;9.936;2023-06-26T09:49:49;10.00;;;7.20;;
47960;SDS011;33721;48.852;9.936;2023-06-26T09:52:15;10.75;;;7.18;;
47960;SDS011;33721;48.852;9.936;2023-06-26T09:54:42;10.57;;;7.43;;
47960;SDS011;33721;48.852;9.936;2023-06-26T09:57:13;14.23;;;7.28;;
47960;SDS011;33721;48.852;9.936;2023-06-26T09:59:43;12.05;;;7.35;;
47960;SDS011;33721;48.852;9.936;2023-06-26T10:02:10;8.65;;;6.97;;
47960;SDS011;33721;48.852;9.936;2023-06-26T10:04:37;11.93;;;7.63;;
47960;SDS011;33721;48.852;9.936;2023-06-26T10:07:06;12.68;;;7.05;;
47960;SDS011;33721;48.852;9.936;2023-06-26T10:09:40;9.10;;;7.07;;
47960;SDS011;33721;48.852;9.936;2023-06-26T10:14:39;8.93;;;6.82;;
47960;SDS011;33721;48.852;9.936;2023-06-26T10:17:09;10.38;;;6.55;;
47960;SDS011;33721;48.852;9.936;2023-06-26T10:19:36;13.98;;;7.20;;
47960;SDS011;33721;48.852;9.936;2023-06-26T10:22:03;8.73;;;7.00;;
47960;SDS011;33721;48.852;9.936;2023-06-26T10:24:31;13.82;;;7.40;;
47960;SDS011;33721;48.852;9.936;2023-06-26T10:27:00;11.35;;;7.22;;
47960;SDS011;33721;48.852;9.936;2023-06-26T10:29:29;9.93;;;6.93;;
47960;SDS011;33721;48.852;9.936;2023-06-26T10:31:57;10.10;;;7.07;;
47960;SDS011;33721;48.852;9.936;2023-06-26T10:34:25;16.98;;;7.53;;
47960;SDS011;33721;48.852;9.936;2023-06-26T10:37:00;11.13;;;7.38;;
47960;SDS011;33721;48.852;9.936;2023-06-26T10:39:45;12.65;;;7.53;;
47960;SDS011;33721;48.852;9.936;2023-06-26T10:42:12;10.88;;;7.30;;
47960;SDS011;33721;48.852;9.936;2023-06-26T10:44:42;13.45;;;8.18;;
47960;SDS011;33721;48.852;9.936;2023-06-26T10:47:09;13.45;;;7.53;;
47960;SDS011;33721;48.852;9.936;2023-06-26T10:49:36;14.50;;;7.85;;
47960;SDS011;33721;48.852;9.936;2023-06-26T10:52:04;12.38;;;7.82;;
47960;SDS011;33721;48.852;9.936;2023-06-26T10:54:34;13.90;;;7.90;;
47960;SDS011;33721;48.852;9.936;2023-06-26T10:57:02;13.25;;;8.57;;
47960;SDS011;33721;48.852;9.936;2023-06-26T10:59:29;9.40;;;7.35;;
47960;SDS011;33721;48.852;9.936;2023-06-26T11:01:57;9.15;;;7.15;;
47960;SDS011;33721;48.852;9.936;2023-06-26T11:04:42;11.68;;;7.90;;
47960;SDS011;33721;48.852;9.936;2023-06-26T11:07:22;15.50;;;7.68;;
47960;SDS011;33721;48.852;9.936;2023-06-26T11:09:58;15.18;;;8.52;;
47960;SDS011;33721;48.852;9.936;2023-06-26T11:12:38;12.88;;;7.85;;
47960;SDS011;33721;48.852;9.936;2023-06-26T11:17:32;14.50;;;8.25;;
47960;SDS011;33721;48.852;9.936;2023-06-26T11:19:59;19.02;;;8.30;;
47960;SDS011;33721;48.852;9.936;2023-06-26T11:22:26;11.77;;;7.82;;
47960;SDS011;33721;48.852;9.936;2023-06-26T11:24:53;10.57;;;8.05;;
47960;SDS011;33721;48.852;9.936;2023-06-26T11:27:19;16.10;;;8.80;;
47960;SDS011;33721;48.852;9.936;2023-06-26T11:29:48;17.20;;;8.60;;
47960;SDS011;33721;48.852;9.936;2023-06-26T11:32:17;10.18;;;7.63;;
47960;SDS011;33721;48.852;9.936;2023-06-26T11:34:42;10.73;;;7.75;;
47960;SDS011;33721;48.852;9.936;2023-06-26T11:37:09;13.57;;;7.93;;
47960;SDS011;33721;48.852;9.936;2023-06-26T11:39:34;23.60;;;9.13;;
47960;SDS011;33721;48.852;9.936;2023-06-26T11:42:03;14.45;;;8.10;;
47960;SDS011;33721;48.852;9.936;2023-06-26T11:44:30;13.63;;;8.32;;
47960;SDS011;33721;48.852;9.936;2023-06-26T11:46:56;11.00;;;8.40;;
47960;SDS011;33721;48.852;9.936;2023-06-26T11:49:22;15.25;;;8.23;;
47960;SDS011;33721;48.852;9.936;2023-06-26T11:51:50;9.45;;;7.47;;
47960;SDS011;33721;48.852;9.936;2023-06-26T11:54:22;10.27;;;7.50;;
47960;SDS011;33721;48.852;9.936;2023-06-26T11:56:51;10.07;;;7.72;;
47960;SDS011;33721;48.852;9.936;2023-06-26T11:59:18;11.88;;;7.97;;
47960;SDS011;33721;48.852;9.936;2023-06-26T12:01:43;12.95;;;8.30;;
47960;SDS011;33721;48.852;9.936;2023-06-26T12:04:10;13.93;;;8.05;;
47960;SDS011;33721;48.852;9.936;2023-06-26T12:06:38;12.90;;;8.18;;
47960;SDS011;33721;48.852;9.936;2023-06-26T12:09:07;18.90;;;8.88;;
47960;SDS011;33721;48.852;9.936;2023-06-26T12:11:35;15.95;;;8.63;;
47960;SDS011;33721;48.852;9.936;2023-06-26T12:14:02;17.65;;;8.63;;
47960;SDS011;33721;48.852;9.936;2023-06-26T12:16:29;15.50;;;8.82;;
47960;SDS011;33721;48.852;9.936;2023-06-26T12:18:58;15.32;;;8.98;;
47960;SDS011;33721;48.852;9.936;2023-06-26T12:24:06;16.38;;;9.00;;
47960;SDS011;33721;48.852;9.936;2023-06-26T12:26:40;15.27;;;9.18;;
47960;SDS011;33721;48.852;9.936;2023-06-26T12:31:36;15.05;;;9.15;;
47960;SDS011;33721;48.852;9.936;2023-06-26T12:34:31;14.32;;;9.35;;
47960;SDS011;33721;48.852;9.936;2023-06-26T12:37:02;13.85;;;9.85;;
47960;SDS011;33721;48.852;9.936;2023-06-26T12:39:30;18.05;;;10.15;;
47960;SDS011;33721;48.852;9.936;2023-06-26T12:42:22;13.43;;;10.40;;
47960;SDS011;33721;48.852;9.936;2023-06-26T12:44:49;13.93;;;9.35;;
47960;SDS011;33721;48.852;9.936;2023-06-26T12:47:16;11.90;;;9.23;;
47960;SDS011;33721;48.852;9.936;2023-06-26T12:49:44;13.05;;;10.27;;
47960;SDS011;33721;48.852;9.936;2023-06-26T12:52:13;14.38;;;10.07;;
47960;SDS011;33721;48.852;9.936;2023-06-26T12:54:40;14.35;;;9.02;;
47960;SDS011;33721;48.852;9.936;2023-06-26T12:57:08;21.42;;;10.38;;
47960;SDS011;33721;48.852;9.936;2023-06-26T12:59:36;19.58;;;9.52;;
47960;SDS011;33721;48.852;9.936;2023-06-26T13:02:02;21.02;;;9.98;;
47960;SDS011;33721;48.852;9.936;2023-06-26T13:04:28;15.60;;;9.55;;
47960;SDS011;33721;48.852;9.936;2023-06-26T13:06:54;14.60;;;9.95;;
47960;SDS011;33721;48.852;9.936;2023-06-26T13:09:21;14.32;;;9.57;;
47960;SDS011;33721;48.852;9.936;2023-06-26T13:11:48;20.10;;;9.80;;
47960;SDS011;33721;48.852;9.936;2023-06-26T13:14:14;12.23;;;9.43;;
47960;SDS011;33721;48.852;9.936;2023-06-26T13:16:40;13.70;;;9.98;;
47960;SDS011;33721;48.852;9.936;2023-06-26T13:19:06;19.33;;;9.63;;
47960;SDS011;33721;48.852;9.936;2023-06-26T13:21:32;15.25;;;9.85;;
47960;SDS011;33721;48.852;9.936;2023-06-26T13:23:58;15.15;;;9.50;;
47960;SDS011;33721;48.852;9.936;2023-06-26T13:26:24;18.98;;;9.75;;
47960;SDS011;33721;48.852;9.936;2023-06-26T13:28:51;12.65;;;9.13;;
47960;SDS011;33721;48.852;9.936;2023-06-26T13:31:17;16.55;;;9.38;;
47960;SDS011;33721;48.852;9.936;2023-06-26T13:33:43;12.82;;;9.73;;
47960;SDS011;33721;48.852;9.936;2023-06-26T13:36:09;17.48;;;9.77;;
47960;SDS011;33721;48.852;9.936;2023-06-26T13:38:35;17.77;;;9.88;;
47960;SDS011;33721;48.852;9.936;2023-06-26T13:41:01;12.85;;;9.73;;
47960;SDS011;33721;48.852;9.936;2023-06-26T13:43:27;14.27;;;10.02;;
47960;SDS011;33721;48.852;9.936;2023-06-26T13:45:54;15.45;;;9.82;;
47960;SDS011;33721;48.852;9.936;2023-06-26T13:48:20;18.17;;;10.07;;
47960;SDS011;33721;48.852;9.936;2023-06-26T13:50:46;17.23;;;10.73;;
47960;SDS011;33721;48.852;9.936;2023-06-26T13:53:12;12.73;;;9.43;;
47960;SDS011;33721;48.852;9.936;2023-06-26T13:55:39;18.95;;;9.50;;
47960;SDS011;33721;48.852;9.936;2023-06-26T13:58:05;20.10;;;9.88;;
47960;SDS011;33721;48.852;9.936;2023-06-26T14:00:32;16.10;;;9.73;;
47960;SDS011;33721;48.852;9.936;2023-06-26T14:02:59;16.25;;;8.95;;
47960;SDS011;33721;48.852;9.936;2023-06-26T14:05:34;14.52;;;9.50;;
47960;SDS011;33721;48.852;9.936;2023-06-26T14:08:04;17.00;;;9.95;;
47960;SDS011;33721;48.852;9.936;2023-06-26T14:10:32;18.42;;;10.23;;
47960;SDS011;33721;48.852;9.936;2023-06-26T14:13:01;17.60;;;10.23;;
47960;SDS011;33721;48.852;9.936;2023-06-26T14:15:28;15.02;;;9.45;;
47960;SDS011;33721;48.852;9.936;2023-06-26T14:17:54;15.48;;;9.60;;
47960;SDS011;33721;48.852;9.936;2023-06-26T14:20:20;14.50;;;9.63;;
47960;SDS011;33721;48.852;9.936;2023-06-26T14:22:47;19.35;;;10.40;;
47960;SDS011;33721;48.852;9.936;2023-06-26T14:25:14;12.70;;;9.30;;
47960;SDS011;33721;48.852;9.936;2023-06-26T14:27:40;15.38;;;9.30;;
47960;SDS011;33721;48.852;9.936;2023-06-26T14:30:06;15.93;;;9.45;;
47960;SDS011;33721;48.852;9.936;2023-06-26T14:32:32;18.55;;;9.13;;
47960;SDS011;33721;48.852;9.936;2023-06-26T14:34:58;16.02;;;9.82;;
47960;SDS011;33721;48.852;9.936;2023-06-26T14:37:28;17.05;;;9.07;;
47960;SDS011;33721;48.852;9.936;2023-06-26T14:39:54;16.17;;;8.70;;
47960;SDS011;33721;48.852;9.936;2023-06-26T14:42:20;19.85;;;8.90;;
47960;SDS011;33721;48.852;9.936;2023-06-26T14:44:46;19.83;;;8.82;;
47960;SDS011;33721;48.852;9.936;2023-06-26T14:47:13;19.17;;;8.80;;
47960;SDS011;33721;48.852;9.936;2023-06-26T14:49:39;19.75;;;9.00;;
47960;SDS011;33721;48.852;9.936;2023-06-26T14:52:05;14.10;;;7.90;;